createdAt,value
2023-04-28T00:01:26.971Z,98697.25
2023-04-28T00:03:55.406Z,98700.78
2023-04-28T00:06:24.028Z,98691.03
2023-04-28T00:08:53.746Z,98697.25
2023-04-28T00:11:22.163Z,98691.03
2023-04-28T00:13:50.778Z,98696.41
2023-04-28T00:16:19.218Z,98689.38
2023-04-28T00:18:47.883Z,98692.06
2023-04-28T00:21:16.305Z,98695.56
2023-04-28T00:23:44.674Z,98694.75
2023-04-28T00:26:14.434Z,98700.13
2023-04-28T00:28:42.826Z,98692.06
2023-04-28T00:31:14.669Z,98688.50
2023-04-28T00:33:43.368Z,98691.19
2023-04-28T00:36:12.226Z,98694.91
2023-04-28T00:38:40.700Z,98690.34
2023-04-28T00:41:10.918Z,98684.97
2023-04-28T00:43:48.392Z,98684.16
2023-04-28T00:46:23.648Z,98681.44
2023-04-28T00:48:52.074Z,98689.53
2023-04-28T00:51:21.233Z,98684.16
2023-04-28T00:53:49.716Z,98694.91
2023-04-28T00:56:18.091Z,98692.22
2023-04-28T00:58:47.825Z,98692.22
2023-04-28T01:01:16.332Z,98692.38
2023-04-28T01:03:44.911Z,98689.69
2023-04-28T01:06:13.470Z,98691.38
2023-04-28T01:08:42.452Z,98691.38
2023-04-28T01:11:14.284Z,98692.38
2023-04-28T01:13:42.808Z,98695.06
2023-04-28T01:16:12.615Z,98695.06
2023-04-28T01:18:42.534Z,98689.69
2023-04-28T01:21:10.904Z,98689.69
2023-04-28T01:23:39.390Z,98684.31
2023-04-28T01:26:09.146Z,98684.31
2023-04-28T01:28:37.792Z,98689.69
2023-04-28T01:31:06.312Z,98688.84
2023-04-28T01:33:34.753Z,98679.94
2023-04-28T01:36:03.169Z,98682.63
2023-04-28T01:38:31.490Z,98684.31
2023-04-28T01:41:00.566Z,98683.66
2023-04-28T01:43:30.392Z,98689.88
2023-04-28T01:45:58.833Z,98688.84
2023-04-28T01:48:27.254Z,98693.38
2023-04-28T01:50:55.594Z,98688.00
2023-04-28T01:53:23.985Z,98684.50
2023-04-28T01:55:52.408Z,98691.72
2023-04-28T01:58:20.883Z,98691.72
2023-04-28T02:00:50.901Z,98691.72
2023-04-28T02:03:19.433Z,98689.03
2023-04-28T02:05:47.893Z,98694.41
2023-04-28T02:08:16.339Z,98690.03
2023-04-28T02:10:45.148Z,98689.03
2023-04-28T02:13:13.663Z,98684.66
2023-04-28T02:15:42.298Z,98682.97
2023-04-28T02:18:12.170Z,98681.97
2023-04-28T02:20:40.872Z,98680.13
2023-04-28T02:23:09.276Z,98682.63
2023-04-28T02:25:37.756Z,98684.50
2023-04-28T02:28:06.178Z,98678.28
2023-04-28T02:30:34.588Z,98681.97
2023-04-28T02:33:03.052Z,98682.81
2023-04-28T02:35:32.903Z,98681.97
2023-04-28T02:38:01.325Z,98675.59
2023-04-28T02:40:29.766Z,98676.59
2023-04-28T02:42:58.172Z,98666.69
2023-04-28T02:45:26.622Z,98663.13
2023-04-28T02:47:55.090Z,98668.34
2023-04-28T02:50:23.722Z,98669.38
2023-04-28T02:52:53.497Z,98672.06
2023-04-28T02:55:24.313Z,98674.56
2023-04-28T02:57:53.143Z,98665.81
2023-04-28T03:00:21.794Z,98666.50
2023-04-28T03:02:50.185Z,98664.00
2023-04-28T03:05:18.700Z,98664.84
2023-04-28T03:07:47.063Z,98669.19
2023-04-28T03:10:16.775Z,98661.94
2023-04-28T03:12:45.113Z,98658.28
2023-04-28T03:15:14.238Z,98659.25
2023-04-28T03:17:43.392Z,98654.91
2023-04-28T03:20:13.096Z,98675.41
2023-04-28T03:22:41.542Z,98654.91
2023-04-28T03:25:10.619Z,98666.50
2023-04-28T03:27:40.346Z,98663.13
2023-04-28T03:30:10.473Z,98657.75
2023-04-28T03:32:38.903Z,98653.25
2023-04-28T03:35:07.940Z,98652.38
2023-04-28T03:37:36.299Z,98653.25
2023-04-28T03:40:05.268Z,98655.94
2023-04-28T03:42:33.624Z,98657.75
2023-04-28T03:45:03.484Z,98656.09
2023-04-28T03:47:31.816Z,98652.38
2023-04-28T03:50:00.195Z,98647.00
2023-04-28T03:52:29.701Z,98647.88
2023-04-28T03:54:58.118Z,98645.34
2023-04-28T03:57:26.577Z,98648.84
2023-04-28T03:59:54.956Z,98647.88
2023-04-28T04:02:25.089Z,98647.00
2023-04-28T04:04:53.675Z,98655.94
2023-04-28T04:07:22.810Z,98650.72
2023-04-28T04:09:51.546Z,98652.56
2023-04-28T04:12:19.996Z,98653.41
2023-04-28T04:14:48.384Z,98654.41
2023-04-28T04:17:17.131Z,98659.81
2023-04-28T04:19:46.886Z,98654.75
2023-04-28T04:22:15.271Z,98663.47
2023-04-28T04:24:43.896Z,98663.47
2023-04-28T04:27:12.285Z,98668.84
2023-04-28T04:29:40.958Z,98670.72
2023-04-28T04:32:09.275Z,98672.56
2023-04-28T04:34:37.640Z,98676.09
2023-04-28T04:37:07.454Z,98675.25
2023-04-28T04:39:35.824Z,98673.41
2023-04-28T04:42:16.863Z,98675.06
2023-04-28T04:44:52.317Z,98680.44
2023-04-28T04:47:20.691Z,98673.25
2023-04-28T04:49:50.046Z,98675.94
2023-04-28T04:52:19.914Z,98677.59
2023-04-28T04:54:48.274Z,98671.38
2023-04-28T04:57:16.649Z,98677.59
2023-04-28T04:59:46.077Z,98675.75
2023-04-28T05:02:14.508Z,98679.28
2023-04-28T05:04:42.981Z,98676.59
2023-04-28T05:07:11.494Z,98677.59
2023-04-28T05:09:41.261Z,98681.13
2023-04-28T05:12:09.728Z,98669.38
2023-04-28T05:14:38.222Z,98675.59
2023-04-28T05:17:06.667Z,98682.63
2023-04-28T05:19:35.078Z,98675.25
2023-04-28T05:22:03.566Z,98672.72
2023-04-28T05:24:31.929Z,98683.31
2023-04-28T05:27:02.319Z,98674.41
2023-04-28T05:29:30.697Z,98677.09
2023-04-28T05:31:59.144Z,98672.56
2023-04-28T05:34:27.656Z,98678.91
2023-04-28T05:36:56.014Z,98671.38
2023-04-28T05:39:24.418Z,98679.09
2023-04-28T05:41:52.858Z,98677.25
2023-04-28T05:44:22.576Z,98674.38
2023-04-28T05:46:51.056Z,98675.38
2023-04-28T05:49:19.438Z,98682.13
2023-04-28T05:51:47.795Z,98686.47
2023-04-28T05:54:16.483Z,98685.78
2023-04-28T05:56:45.052Z,98682.47
2023-04-28T05:59:13.524Z,98674.22
2023-04-28T06:01:43.402Z,98677.94
2023-04-28T06:04:12.186Z,98679.94
2023-04-28T06:06:40.797Z,98674.75
2023-04-28T06:09:09.180Z,98680.97
2023-04-28T06:11:37.541Z,98668.34
2023-04-28T06:14:05.941Z,98675.91
2023-04-28T06:16:34.500Z,98674.22
2023-04-28T06:19:04.996Z,98680.94
2023-04-28T06:21:33.752Z,98684.00
2023-04-28T06:24:02.380Z,98686.00
2023-04-28T06:26:31.005Z,98679.78
2023-04-28T06:28:59.366Z,98680.63
2023-04-28T06:31:28.292Z,98674.22
2023-04-28T06:33:56.733Z,98674.22
2023-04-28T06:36:26.869Z,98668.84
2023-04-28T06:38:55.888Z,98672.56
2023-04-28T06:41:24.373Z,98676.91
2023-04-28T06:43:52.771Z,98675.91
2023-04-28T06:46:21.248Z,98681.44
2023-04-28T06:48:49.673Z,98681.44
2023-04-28T06:51:18.146Z,98681.63
2023-04-28T06:53:47.894Z,98674.41
2023-04-28T06:56:16.299Z,98668.34
2023-04-28T06:58:45.072Z,98669.38
2023-04-28T07:01:13.519Z,98668.50
2023-04-28T07:03:42.083Z,98671.19
2023-04-28T07:06:13.007Z,98664.84
2023-04-28T07:08:42.694Z,98665.66
2023-04-28T07:11:12.519Z,98657.59
2023-04-28T07:13:40.978Z,98659.25
2023-04-28T07:16:10.441Z,98653.06
2023-04-28T07:18:38.847Z,98652.72
2023-04-28T07:21:07.433Z,98650.84
2023-04-28T07:23:36.018Z,98650.84
2023-04-28T07:26:04.360Z,98647.16
2023-04-28T07:28:35.374Z,98653.38
2023-04-28T07:31:03.740Z,98646.97
2023-04-28T07:33:32.181Z,98640.59
2023-04-28T07:36:00.584Z,98633.38
2023-04-28T07:38:29.323Z,98635.03
2023-04-28T07:40:57.971Z,98632.34
2023-04-28T07:43:26.549Z,98629.50
2023-04-28T07:45:56.339Z,98626.31
2023-04-28T07:48:24.878Z,98627.13
2023-04-28T07:50:53.320Z,98623.41
2023-04-28T07:53:21.728Z,98632.31
2023-04-28T07:55:50.492Z,98627.13
2023-04-28T07:58:18.921Z,98625.44
2023-04-28T08:00:47.441Z,98633.50
2023-04-28T08:03:17.306Z,98618.38
2023-04-28T08:05:46.065Z,98622.09
2023-04-28T08:08:14.703Z,98622.59
2023-04-28T08:10:43.939Z,98616.38
2023-04-28T08:13:12.330Z,98616.38
2023-04-28T08:15:40.820Z,98615.53
2023-04-28T08:18:09.420Z,98620.06
2023-04-28T08:20:39.453Z,98609.13
2023-04-28T08:23:08.763Z,98611.81
2023-04-28T08:25:37.268Z,98602.94
2023-04-28T08:28:06.480Z,98603.59
2023-04-28T08:30:35.694Z,98609.13
2023-04-28T08:33:04.985Z,98607.28
2023-04-28T08:35:35.128Z,98600.03
2023-04-28T08:38:05.499Z,98600.22
2023-04-28T08:40:34.182Z,98594.84
2023-04-28T08:43:03.094Z,98600.72
2023-04-28T08:45:32.073Z,98596.16
2023-04-28T08:48:00.745Z,98591.81
2023-04-28T08:50:29.181Z,98590.97
2023-04-28T08:52:57.549Z,98599.72
2023-04-28T08:56:50.489Z,98590.44
2023-04-28T08:59:19.123Z,98591.94
2023-04-28T09:01:49.685Z,98583.88
2023-04-28T09:04:19.337Z,98583.88
2023-04-28T09:06:48.214Z,98582.03
2023-04-28T09:09:23.595Z,98582.38
2023-04-28T09:11:59.604Z,98578.84
2023-04-28T09:14:28.299Z,98569.41
2023-04-28T09:16:56.906Z,98578.16
2023-04-28T09:19:25.456Z,98573.78
2023-04-28T09:21:55.407Z,98573.63
2023-04-28T09:24:33.388Z,98559.16
2023-04-28T09:27:04.702Z,98568.06
2023-04-28T09:29:33.446Z,98569.94
2023-04-28T09:32:18.130Z,98563.38
2023-04-28T09:34:48.484Z,98557.31
2023-04-28T09:37:18.070Z,98553.78
2023-04-28T09:39:46.928Z,98551.78
2023-04-28T09:42:35.702Z,98545.19
2023-04-28T09:45:04.689Z,98554.25
2023-04-28T09:47:35.165Z,98551.56
2023-04-28T09:50:05.023Z,98543.34
2023-04-28T09:52:34.516Z,98536.94
2023-04-28T09:55:04.082Z,98536.13
2023-04-28T09:57:34.541Z,98534.25
2023-04-28T10:00:05.896Z,98521.84
2023-04-28T10:05:08.967Z,98524.34
2023-04-28T10:07:37.708Z,98518.97
2023-04-28T10:10:07.126Z,98511.75
2023-04-28T10:12:38.828Z,98506.72
2023-04-28T10:15:09.673Z,98507.53
2023-04-28T10:17:38.443Z,98500.84
2023-04-28T10:20:08.959Z,98501.66
2023-04-28T10:22:51.160Z,98501.66
2023-04-28T10:25:28.582Z,98499.63
2023-04-28T10:27:58.724Z,98489.06
2023-04-28T10:30:29.641Z,98490.56
2023-04-28T10:33:27.441Z,98483.13
2023-04-28T10:35:56.095Z,98475.94
2023-04-28T10:38:24.540Z,98482.66
2023-04-28T10:40:53.944Z,98481.63
2023-04-28T10:43:40.196Z,98464.66
2023-04-28T10:46:10.266Z,98470.69
2023-04-28T10:48:58.090Z,98459.94
2023-04-28T10:51:30.492Z,98458.06
2023-04-28T10:54:28.219Z,98455.59
2023-04-28T10:57:21.984Z,98445.81
2023-04-28T10:59:52.402Z,98450.38
2023-04-28T11:02:51.396Z,98437.09
2023-04-28T11:05:20.840Z,98438.78
2023-04-28T11:08:34.652Z,98442.50
2023-04-28T11:11:23.889Z,98424.50
2023-04-28T11:13:52.528Z,98422.97
2023-04-28T11:16:25.920Z,98419.41
2023-04-28T11:19:03.232Z,98429.88
2023-04-28T11:21:32.682Z,98422.63
2023-04-28T11:24:01.297Z,98421.59
2023-04-28T11:26:30.948Z,98412.53
2023-04-28T11:28:59.909Z,98409.84
2023-04-28T11:31:29.824Z,98410.84
2023-04-28T11:34:01.670Z,98404.81
2023-04-28T11:36:33.124Z,98407.88
2023-04-28T11:39:01.526Z,98395.41
2023-04-28T11:41:29.896Z,98398.75
2023-04-28T11:43:58.316Z,98401.81
2023-04-28T11:46:27.046Z,98404.66
2023-04-28T11:49:04.623Z,98400.84
2023-04-28T11:51:38.160Z,98400.91
2023-04-28T11:54:07.981Z,98396.19
2023-04-28T11:56:42.173Z,98394.13
2023-04-28T11:59:11.647Z,98395.81
2023-04-28T12:01:47.850Z,98397.91
2023-04-28T12:04:28.363Z,98387.28
2023-04-28T12:07:04.867Z,98371.94
2023-04-28T12:09:33.432Z,98379.91
2023-04-28T12:12:04.720Z,98380.25
2023-04-28T12:14:35.774Z,98366.88
2023-04-28T12:17:05.193Z,98370.94
2023-04-28T12:19:46.756Z,98358.53
2023-04-28T12:22:17.657Z,98369.63
2023-04-28T12:24:46.708Z,98366.56
2023-04-28T12:27:21.789Z,98358.91
2023-04-28T12:29:51.083Z,98352.81
2023-04-28T12:32:20.398Z,98346.84
2023-04-28T12:34:51.413Z,98338.97
2023-04-28T12:37:19.820Z,98347.84
2023-04-28T12:39:48.143Z,98337.47
2023-04-28T12:42:16.561Z,98335.06
2023-04-28T12:44:46.260Z,98336.78
2023-04-28T12:47:14.729Z,98336.78
2023-04-28T12:49:43.257Z,98322.31
2023-04-28T12:52:13.246Z,98320.81
2023-04-28T12:54:47.076Z,98316.47
2023-04-28T12:57:15.565Z,98322.50
2023-04-28T12:59:44.173Z,98322.66
2023-04-28T13:02:12.772Z,98310.25
2023-04-28T13:04:43.151Z,98318.66
2023-04-28T13:07:13.078Z,98307.63
2023-04-28T13:09:42.967Z,98300.88
2023-04-28T13:12:12.596Z,98298.09
2023-04-28T13:14:40.952Z,98294.53
2023-04-28T13:17:10.194Z,98290.28
2023-04-28T13:19:39.463Z,98297.88
2023-04-28T13:22:09.199Z,98293.44
2023-04-28T13:24:38.934Z,98292.25
2023-04-28T13:27:09.930Z,98286.22
2023-04-28T13:29:38.712Z,98282.88
2023-04-28T13:32:07.720Z,98271.31
2023-04-28T13:34:38.164Z,98268.72
2023-04-28T13:37:06.577Z,98269.97
2023-04-28T13:39:34.961Z,98278.31
2023-04-28T13:42:06.025Z,98276.50
2023-04-28T13:44:34.576Z,98275.47
2023-04-28T13:47:03.358Z,98266.72
2023-04-28T13:49:31.853Z,98263.03
2023-04-28T13:52:00.232Z,98263.28
2023-04-28T13:54:28.923Z,98247.16
2023-04-28T13:56:58.034Z,98245.41
2023-04-28T13:59:27.871Z,98248.81
2023-04-28T14:01:56.393Z,98245.97
2023-04-28T14:04:25.029Z,98252.22
2023-04-28T14:06:54.132Z,98247.44
2023-04-28T14:09:22.553Z,98247.91
2023-04-28T14:11:51.269Z,98249.03
2023-04-28T14:14:19.598Z,98251.34
2023-04-28T14:16:49.584Z,98239.47
2023-04-28T14:19:18.635Z,98236.63
2023-04-28T14:21:47.844Z,98238.28
2023-04-28T14:24:16.250Z,98238.28
2023-04-28T14:26:45.500Z,98232.06
2023-04-28T14:29:13.912Z,98233.41
2023-04-28T14:31:42.385Z,98237.56
2023-04-28T14:34:12.179Z,98226.44
2023-04-28T14:36:42.273Z,98227.94
2023-04-28T14:39:10.785Z,98221.06
2023-04-28T14:41:39.163Z,98230.72
2023-04-28T14:44:08.289Z,98225.50
2023-04-28T14:46:37.742Z,98223.47
2023-04-28T14:49:06.773Z,98220.78
2023-04-28T14:51:36.636Z,98220.94
2023-04-28T14:54:05.270Z,98219.09
2023-04-28T14:56:34.036Z,98233.41
2023-04-28T14:59:02.738Z,98223.47
2023-04-28T15:01:32.012Z,98220.13
2023-04-28T15:04:00.760Z,98217.44
2023-04-28T15:06:29.337Z,98216.41
2023-04-28T15:08:59.100Z,98222.66
2023-04-28T15:11:27.703Z,98220.78
2023-04-28T15:13:56.816Z,98224.97
2023-04-28T15:16:25.198Z,98220.59
2023-04-28T15:18:53.649Z,98215.22
2023-04-28T15:21:22.050Z,98200.94
2023-04-28T15:23:50.658Z,98204.44
2023-04-28T15:26:20.397Z,98201.75
2023-04-28T15:28:48.848Z,98206.31
2023-04-28T15:31:17.349Z,98200.75
2023-04-28T15:33:45.907Z,98198.91
2023-04-28T15:36:14.794Z,98190.00
2023-04-28T15:38:45.295Z,98197.25
2023-04-28T15:41:13.966Z,98181.13
2023-04-28T15:43:44.464Z,98189.50
2023-04-28T15:46:14.817Z,98187.47
2023-04-28T15:48:43.794Z,98183.13
2023-04-28T15:51:12.357Z,98173.22
2023-04-28T15:53:40.982Z,98165.81
2023-04-28T15:56:09.619Z,98173.03
2023-04-28T15:58:38.169Z,98175.72
2023-04-28T16:01:08.940Z,98175.34
2023-04-28T16:03:37.913Z,98170.63
2023-04-28T16:06:07.024Z,98155.72
2023-04-28T16:08:35.871Z,98164.78
2023-04-28T16:11:05.161Z,98162.28
2023-04-28T16:13:37.061Z,98160.44
2023-04-28T16:16:09.148Z,98156.91
2023-04-28T16:18:39.691Z,98147.16
2023-04-28T16:21:08.202Z,98156.03
2023-04-28T16:23:36.642Z,98159.59
2023-04-28T16:26:05.213Z,98162.28
2023-04-28T16:28:34.116Z,98157.91
2023-04-28T16:31:02.623Z,98155.03
2023-04-28T16:33:32.350Z,98148.63
2023-04-28T16:36:00.997Z,98146.59
2023-04-28T16:38:29.334Z,98145.78
2023-04-28T16:40:57.888Z,98138.53
2023-04-28T16:43:26.385Z,98139.38
2023-04-28T16:45:54.898Z,98132.13
2023-04-28T16:48:23.972Z,98136.69
2023-04-28T16:50:54.303Z,98131.31
2023-04-28T16:53:23.242Z,98133.00
2023-04-28T16:55:51.756Z,98121.19
2023-04-28T16:58:20.579Z,98134.66
2023-04-28T17:00:48.979Z,98137.34
2023-04-28T17:03:17.657Z,98134.66
2023-04-28T17:05:46.152Z,98131.97
2023-04-28T17:08:16.472Z,98124.94
2023-04-28T17:10:46.958Z,98127.63
2023-04-28T17:13:15.731Z,98124.94
2023-04-28T17:15:44.198Z,98114.78
2023-04-28T17:18:12.631Z,98122.03
2023-04-28T17:20:41.662Z,98121.00
2023-04-28T17:23:10.094Z,98123.53
2023-04-28T17:25:40.630Z,98118.13
2023-04-28T17:28:09.439Z,98120.81
2023-04-28T17:30:38.446Z,98121.84
2023-04-28T17:33:06.904Z,98124.56
2023-04-28T17:35:35.660Z,98122.69
2023-04-28T17:38:04.221Z,98128.06
2023-04-28T17:40:32.945Z,98121.00
2023-04-28T17:43:04.101Z,98130.94
2023-04-28T17:45:32.712Z,98139.66
2023-04-28T17:48:01.485Z,98139.66
2023-04-28T17:50:30.290Z,98141.50
2023-04-28T17:52:58.707Z,98148.75
2023-04-28T17:55:27.423Z,98152.44
2023-04-28T17:57:55.797Z,98160.50
2023-04-28T18:00:25.861Z,98161.53
2023-04-28T18:02:55.302Z,98157.00
2023-04-28T18:05:24.571Z,98157.81
2023-04-28T18:08:09.047Z,98167.75
2023-04-28T18:10:45.837Z,98159.69
2023-04-28T18:13:14.880Z,98168.56
2023-04-28T18:15:51.157Z,98158.66
2023-04-28T18:18:20.342Z,98152.28
2023-04-28T18:20:49.744Z,98160.34
2023-04-28T18:23:21.711Z,98162.19
2023-04-28T18:25:50.964Z,98160.34
2023-04-28T18:28:23.448Z,98171.09
2023-04-28T18:30:52.884Z,98170.25
2023-04-28T18:33:30.495Z,98159.50
2023-04-28T18:36:10.284Z,98176.47
2023-04-28T18:38:42.709Z,98168.56
2023-04-28T18:41:15.093Z,98169.41
2023-04-28T18:43:50.825Z,98162.19
2023-04-28T18:46:24.587Z,98170.25
2023-04-28T18:48:57.560Z,98168.41
2023-04-28T18:51:32.153Z,98175.66
2023-04-28T18:54:03.087Z,98175.66
2023-04-28T18:56:32.707Z,98171.25
2023-04-28T18:59:12.241Z,98181.84
2023-04-28T19:01:47.572Z,98178.34
2023-04-28T19:04:23.145Z,98183.72
2023-04-28T19:06:58.377Z,98182.69
2023-04-28T19:09:32.635Z,98183.50
2023-04-28T19:12:02.109Z,98185.53
2023-04-28T19:14:36.828Z,98182.84
2023-04-28T19:17:08.319Z,98178.50
2023-04-28T19:19:40.072Z,98185.53
2023-04-28T19:22:36.361Z,98198.16
2023-04-28T19:25:21.748Z,98191.78
2023-04-28T19:28:08.662Z,98191.78
2023-04-28T19:30:41.958Z,98189.09
2023-04-28T19:33:27.841Z,98185.53
2023-04-28T19:36:05.968Z,98180.16
2023-04-28T19:38:37.498Z,98186.41
2023-04-28T19:41:15.918Z,98181.03
2023-04-28T19:43:50.973Z,98171.25
2023-04-28T19:46:33.656Z,98173.78
2023-04-28T19:49:10.132Z,98172.97
2023-04-28T19:51:45.776Z,98172.31
2023-04-28T19:54:20.552Z,98167.75
2023-04-28T19:56:51.025Z,98170.44
2023-04-28T19:59:24.996Z,98175.81
2023-04-28T20:02:11.269Z,98161.53
2023-04-28T20:04:52.754Z,98170.63
2023-04-28T20:07:21.283Z,98165.25
2023-04-28T20:09:49.888Z,98148.25
2023-04-28T20:12:18.430Z,98156.34
2023-04-28T20:14:47.166Z,98160.88
2023-04-28T20:17:15.942Z,98148.47
2023-04-28T20:19:46.031Z,98168.13
2023-04-28T20:22:14.361Z,98163.56
2023-04-28T20:24:42.751Z,98154.84
2023-04-28T20:27:12.091Z,98153.84
2023-04-28T20:29:40.515Z,98152.81
2023-04-28T20:32:09.248Z,98155.50
2023-04-28T20:34:38.536Z,98158.19
2023-04-28T20:37:08.374Z,98145.56
2023-04-28T20:39:36.861Z,98151.81
2023-04-28T20:42:06.199Z,98154.69
2023-04-28T20:44:34.664Z,98158.19
2023-04-28T20:47:03.640Z,98160.88
2023-04-28T20:49:32.173Z,98161.72
2023-04-28T20:52:04.905Z,98137.72
2023-04-28T20:54:36.250Z,98142.06
2023-04-28T20:57:04.991Z,98139.56
2023-04-28T20:59:33.465Z,98136.69
2023-04-28T21:02:01.870Z,98133.34
2023-04-28T21:04:30.309Z,98123.44
2023-04-28T21:06:58.719Z,98130.47
2023-04-28T21:09:27.208Z,98129.66
2023-04-28T21:11:57.035Z,98130.47
2023-04-28T21:14:25.474Z,98127.78
2023-04-28T21:16:53.936Z,98133.16
2023-04-28T21:19:22.368Z,98119.72
2023-04-28T21:21:50.756Z,98126.13
2023-04-28T21:24:19.148Z,98133.34
2023-04-28T21:26:47.663Z,98129.66
2023-04-28T21:29:18.474Z,98120.53
2023-04-28T21:31:47.425Z,98124.28
2023-04-28T21:34:15.850Z,98126.97
2023-04-28T21:36:44.388Z,98129.66
2023-04-28T21:39:12.794Z,98121.56
2023-04-28T21:41:41.143Z,98124.06
2023-04-28T21:44:09.566Z,98123.22
2023-04-28T21:46:39.382Z,98115.16
2023-04-28T21:49:08.192Z,98122.22
2023-04-28T21:51:36.678Z,98112.47
2023-04-28T21:54:05.749Z,98117.84
2023-04-28T21:56:34.167Z,98117.84
2023-04-28T21:59:03.236Z,98121.38
2023-04-28T22:01:32.200Z,98122.22
2023-04-28T22:04:02.484Z,98116.84
2023-04-28T22:06:31.906Z,98107.09
2023-04-28T22:09:01.418Z,98113.31
2023-04-28T22:11:29.890Z,98109.78
2023-04-28T22:13:58.272Z,98111.47
2023-04-28T22:16:26.801Z,98111.47
2023-04-28T22:18:55.270Z,98109.78
2023-04-28T22:21:25.595Z,98096.34
2023-04-28T22:23:53.974Z,98104.41
2023-04-28T22:26:22.754Z,98106.09
2023-04-28T22:28:51.654Z,98115.00
2023-04-28T22:31:20.566Z,98106.09
2023-04-28T22:33:48.951Z,98104.41
2023-04-28T22:36:17.355Z,98104.41
2023-04-28T22:38:47.130Z,98097.38
2023-04-28T22:41:16.117Z,98093.66
2023-04-28T22:43:44.502Z,98092.81
2023-04-28T22:46:12.944Z,98089.09
2023-04-28T22:48:41.324Z,98092.66
2023-04-28T22:51:10.121Z,98088.28
2023-04-28T22:53:38.832Z,98091.78
2023-04-28T22:56:08.962Z,98092.81
2023-04-28T22:58:37.429Z,98089.09
2023-04-28T23:01:05.849Z,98090.97
2023-04-28T23:03:34.895Z,98088.28
2023-04-28T23:06:03.846Z,98089.31
2023-04-28T23:08:32.272Z,98086.63
2023-04-28T23:11:00.677Z,98086.41
2023-04-28T23:13:30.491Z,98083.09
2023-04-28T23:16:00.400Z,98086.63
2023-04-28T23:18:32.999Z,98087.44
2023-04-28T23:21:01.422Z,98076.69
2023-04-28T23:23:29.849Z,98075.88
2023-04-28T23:25:58.249Z,98076.69
2023-04-28T23:28:26.796Z,98070.50
2023-04-28T23:30:56.506Z,98069.66
2023-04-28T23:33:24.920Z,98070.50
2023-04-28T23:35:53.527Z,98069.66
2023-04-28T23:38:22.123Z,98068.78
2023-04-28T23:40:50.484Z,98057.22
2023-04-28T23:43:18.871Z,98058.03
2023-04-28T23:45:47.248Z,98051.84
2023-04-28T23:48:17.359Z,98056.22
2023-04-28T23:50:45.926Z,98056.22
2023-04-28T23:53:14.268Z,98050.84
2023-04-28T23:55:42.633Z,98046.28
2023-04-28T23:58:11.027Z,98041.91
